Time;durP1;ratioP1;P1;durP2;ratioP2;P2;SDS_P1;SDS_P2;PMS_P1;PMS_P2;Temp;Humidity;BMP_temperature;BMP_pressure;BME280_temperature;BME280_humidity;BME280_pressure;Samples;Min_cycle;Max_cycle;Signal;HPM_P1;HPM_P2
2023/06/25 00:01:59;;;;;;;10.23;6.32;;;16.70;99.90;;;-144.05;77.18;56814.84;5012978;28;20541;-81
2023/06/25 00:04:25;;;;;;;9.57;6.80;;;16.60;99.90;;;-144.05;77.63;56842.47;5027697;28;20026;-81
2023/06/25 00:06:51;;;;;;;9.52;6.63;;;16.60;99.90;;;-144.05;77.56;56831.84;5012070;28;20034;-82
2023/06/25 00:09:17;;;;;;;8.48;6.28;;;16.60;99.90;;;-144.05;77.82;56855.22;5010795;28;20026;-80
2023/06/25 00:11:43;;;;;;;8.88;6.45;;;16.60;99.90;;;-144.05;77.98;56844.59;5012284;28;20033;-82
2023/06/25 00:14:08;;;;;;;8.30;6.60;;;16.60;99.90;;;-144.05;78.30;56840.34;5012328;28;20492;-82
2023/06/25 00:16:34;;;;;;;7.88;5.75;;;16.60;99.90;;;-144.05;78.40;56827.59;5011722;28;20065;-82
2023/06/25 00:19:00;;;;;;;8.52;5.82;;;16.50;99.90;;;-144.05;79.03;56844.59;5010936;28;20060;-82
2023/06/25 00:21:27;;;;;;;7.38;5.97;;;16.50;99.90;;;-144.05;79.00;56831.84;5012735;28;20491;-82
2023/06/25 00:23:53;;;;;;;7.93;5.93;;;16.50;99.90;;;-144.05;78.77;56844.59;5011185;28;20026;-81
2023/06/25 00:26:19;;;;;;;8.85;6.13;;;16.40;99.90;;;-144.05;79.42;56827.59;5011112;28;20163;-84
2023/06/25 00:28:45;;;;;;;9.40;5.90;;;16.40;99.90;;;-144.05;79.22;56844.59;5020674;28;20072;-80
2023/06/25 00:31:12;;;;;;;10.48;6.30;;;16.40;99.90;;;-144.05;79.49;56846.72;5036240;28;20076;-81
2023/06/25 00:33:41;;;;;;;6.38;5.32;;;16.40;99.90;;;-144.05;79.38;56840.34;5036471;28;20025;-78
2023/06/25 00:36:08;;;;;;;7.55;6.00;;;16.40;99.90;;;-144.05;79.42;56825.47;5036119;28;20046;-79
2023/06/25 00:38:39;;;;;;;8.68;6.18;;;16.30;99.90;;;-144.05;79.77;56831.84;5017440;28;20034;-79
2023/06/25 00:41:10;;;;;;;8.48;5.97;;;16.30;99.90;;;-144.05;80.02;56846.72;5011433;28;20104;-80
2023/06/25 00:43:41;;;;;;;8.57;6.00;;;16.30;99.90;;;-144.05;79.80;56844.59;5009869;28;20412;-80
2023/06/25 00:46:15;;;;;;;8.90;6.07;;;16.20;99.90;;;-144.05;79.95;56838.22;5011267;28;20022;-80
2023/06/25 00:48:45;;;;;;;9.32;6.10;;;16.20;99.90;;;-144.05;80.12;56836.09;5011118;28;20112;-80
2023/06/25 00:51:15;;;;;;;9.18;6.63;;;16.20;99.90;;;-144.05;80.27;56848.84;5026141;28;20484;-84
2023/06/25 00:53:42;;;;;;;9.65;6.13;;;16.20;99.90;;;-144.05;80.05;56870.06;5033094;28;20034;-84
2023/06/25 00:56:08;;;;;;;7.38;5.82;;;16.20;99.90;;;-144.05;79.97;56853.09;5032376;28;20034;-85
2023/06/25 00:58:38;;;;;;;8.88;5.85;;;16.20;99.90;;;-144.05;80.30;56840.34;5030753;28;20441;-84
2023/06/25 01:01:15;;;;;;;8.48;6.25;;;16.20;99.90;;;-144.05;80.54;56844.59;5031641;28;20075;-83
2023/06/25 01:03:54;;;;;;;9.43;6.18;;;16.10;99.90;;;-144.05;80.59;56840.34;5032222;28;20109;-80
2023/06/25 01:06:47;;;;;;;8.57;6.03;;;16.10;99.90;;;-144.05;80.78;56840.34;5031065;28;20400;-84
2023/06/25 01:09:16;;;;;;;7.82;5.57;;;16.20;99.90;;;-144.05;80.54;56827.59;5030092;28;20084;-82
2023/06/25 01:12:04;;;;;;;8.82;6.30;;;16.10;99.90;;;-144.05;80.95;56850.97;5031884;28;20100;-84
2023/06/25 01:14:32;;;;;;;7.07;5.32;;;16.10;99.90;;;-144.05;80.84;56848.84;5032201;28;20036;-81
2023/06/25 01:16:59;;;;;;;8.98;6.45;;;16.10;99.90;;;-144.05;80.92;56819.09;5030684;28;20039;-83
2023/06/25 01:19:31;;;;;;;10.00;6.47;;;16.10;99.90;;;-144.05;81.13;56844.59;5031943;28;20480;-82
2023/06/25 01:22:04;;;;;;;8.95;6.22;;;16.10;99.90;;;-144.05;80.96;56848.84;5047294;28;20037;-83
2023/06/25 01:24:42;;;;;;;10.20;6.40;;;16.10;99.90;;;-144.05;80.93;56865.81;5031543;28;20026;-82
2023/06/25 01:27:08;;;;;;;8.48;6.25;;;16.10;99.90;;;-144.05;80.84;56827.59;5031349;28;20437;-85
2023/06/25 01:29:34;;;;;;;6.97;5.30;;;16.10;99.90;;;-144.05;80.85;56838.22;5030368;28;20130;-82
2023/06/25 01:32:00;;;;;;;7.20;5.80;;;16.00;99.90;;;-144.05;80.83;56844.59;5033326;28;20080;-81
2023/06/25 01:34:26;;;;;;;7.97;5.97;;;16.00;99.90;;;-144.05;80.97;56836.09;5034059;28;20116;-78
2023/06/25 01:36:53;;;;;;;9.27;5.85;;;16.00;99.90;;;-144.05;81.09;56831.84;5033775;28;20440;-79
2023/06/25 01:39:21;;;;;;;8.48;5.68;;;16.00;99.90;;;-144.05;81.05;56859.47;5033854;28;20057;-80
2023/06/25 01:41:48;;;;;;;9.23;6.15;;;16.00;99.90;;;-144.05;81.27;56831.84;5033686;28;20040;-79
2023/06/25 01:44:26;;;;;;;7.43;5.85;;;16.00;99.90;;;-144.05;81.50;56842.47;5032639;28;20389;-80
2023/06/25 01:46:51;;;;;;;7.43;5.72;;;15.90;99.90;;;-144.05;81.65;56846.72;5033757;28;20034;-80
2023/06/25 01:49:17;;;;;;;9.23;5.70;;;15.90;99.90;;;-144.05;81.73;56872.19;5049000;28;20105;-79
2023/06/25 01:51:43;;;;;;;7.50;6.45;;;15.80;99.90;;;-144.05;82.00;56827.59;5033486;28;20499;-80
2023/06/25 01:54:09;;;;;;;7.68;5.40;;;15.80;99.90;;;-144.05;82.00;56848.84;5032225;28;20033;-80
2023/06/25 01:56:35;;;;;;;7.95;6.00;;;15.80;99.90;;;-144.05;82.02;56836.09;5043459;28;20041;-82
2023/06/25 01:59:01;;;;;;;7.90;5.88;;;15.80;99.90;;;-144.05;82.06;56797.88;5048844;28;20025;-82
2023/06/25 02:01:27;;;;;;;8.48;6.03;;;15.80;99.90;;;-144.05;82.08;56844.59;5039659;28;20029;-80
2023/06/25 02:03:53;;;;;;;8.23;5.95;;;15.80;99.90;;;-144.05;82.16;56836.09;5033817;28;20113;-79
2023/06/25 02:06:19;;;;;;;7.63;5.90;;;15.70;99.90;;;-144.05;82.29;56857.34;5034696;28;20064;-82
2023/06/25 02:08:45;;;;;;;9.77;6.38;;;15.80;99.90;;;-144.05;82.37;56865.81;5050105;28;20060;-80
2023/06/25 02:11:10;;;;;;;8.30;6.13;;;15.70;99.90;;;-144.05;82.42;56855.22;5034814;28;20036;-80
2023/06/25 02:13:36;;;;;;;9.20;6.35;;;15.70;99.90;;;-144.05;82.67;56840.34;5032937;28;20025;-83
2023/06/25 02:16:02;;;;;;;8.48;5.82;;;15.70;99.90;;;-144.05;82.77;56863.69;5031964;28;20062;-80
2023/06/25 02:18:30;;;;;;;9.43;6.40;;;15.70;99.90;;;-144.05;82.96;56840.34;5033272;28;20025;-81
2023/06/25 02:20:56;;;;;;;8.50;6.25;;;15.70;99.90;;;-144.05;83.32;56825.47;5033173;28;20373;-81
2023/06/25 02:23:22;;;;;;;8.65;5.68;;;15.60;99.90;;;-144.05;83.67;56829.72;5032877;28;20033;-80
2023/06/25 02:25:49;;;;;;;8.27;5.95;;;15.60;99.90;;;-144.05;83.61;56840.34;5033040;28;20520;-80
2023/06/25 02:28:16;;;;;;;8.65;6.70;;;15.60;99.90;;;-144.05;83.74;56838.22;5032898;28;20365;-81
2023/06/25 02:30:42;;;;;;;8.63;6.53;;;15.60;99.90;;;-144.05;84.13;56829.72;5033003;28;20465;-80
2023/06/25 02:33:09;;;;;;;9.63;6.45;;;15.60;99.90;;;-144.05;84.27;56829.72;5032999;28;20029;-81
2023/06/25 02:35:35;;;;;;;8.32;6.38;;;15.60;99.90;;;-144.05;83.97;56838.22;5033085;28;20053;-80
2023/06/25 02:38:01;;;;;;;9.82;6.40;;;15.50;99.90;;;-144.05;84.22;56846.72;5048074;28;20404;-79
2023/06/25 02:40:27;;;;;;;9.98;6.70;;;15.50;99.90;;;-144.05;84.36;56867.94;5031576;28;20087;-81
2023/06/25 02:42:54;;;;;;;10.15;6.78;;;15.50;99.90;;;-144.05;84.76;56846.72;5032873;28;20030;-80
2023/06/25 02:45:21;;;;;;;9.00;5.97;;;15.50;99.90;;;-144.05;84.67;56836.09;5032784;28;20037;-80
2023/06/25 02:47:47;;;;;;;8.00;5.97;;;15.40;99.90;;;-144.05;84.88;56838.22;5032766;28;20045;-80
2023/06/25 02:50:13;;;;;;;8.73;6.13;;;15.40;99.90;;;-144.05;85.12;56840.34;5026476;28;20413;-80
2023/06/25 02:52:39;;;;;;;10.43;6.75;;;15.40;99.90;;;-144.05;85.17;56819.09;5012811;28;20044;-81
2023/06/25 02:55:06;;;;;;;8.02;5.80;;;15.30;99.90;;;-144.05;85.27;56838.22;5012749;28;20030;-80
2023/06/25 02:57:32;;;;;;;8.77;6.10;;;15.30;99.90;;;-144.05;85.31;56844.59;5012639;28;20030;-82
2023/06/25 02:59:59;;;;;;;8.27;6.20;;;15.30;99.90;;;-144.05;85.34;56836.09;5011218;28;20505;-79
2023/06/25 03:02:26;;;;;;;9.27;6.18;;;15.30;99.90;;;-144.05;85.73;56814.84;5013041;28;20390;-82
2023/06/25 03:04:52;;;;;;;8.15;6.20;;;15.30;99.90;;;-144.05;85.58;56816.97;5012436;28;20053;-82
2023/06/25 03:07:18;;;;;;;7.47;6.15;;;15.20;99.90;;;-144.05;85.81;56831.84;5011243;28;20103;-79
2023/06/25 03:09:45;;;;;;;9.30;7.07;;;15.20;99.90;;;-144.05;86.02;56863.69;5012496;28;20163;-80
2023/06/25 03:12:10;;;;;;;8.88;6.60;;;15.30;99.90;;;-144.05;86.05;56819.09;5012527;28;20033;-80
2023/06/25 03:14:37;;;;;;;7.95;6.15;;;15.20;99.90;;;-144.05;86.50;56836.09;5012447;28;20066;-79
2023/06/25 03:17:04;;;;;;;10.00;6.32;;;15.20;99.90;;;-144.05;86.68;56848.84;5012327;28;20109;-79
2023/06/25 03:19:31;;;;;;;7.95;6.32;;;15.10;99.90;;;-144.05;86.79;56840.34;5012131;28;20403;-79
2023/06/25 03:21:57;;;;;;;7.45;6.20;;;15.10;99.90;;;-144.05;86.72;56855.22;5013292;28;20033;-84
2023/06/25 03:24:23;;;;;;;9.02;6.32;;;15.10;99.90;;;-144.05;86.95;56844.59;5012305;28;20033;-82
2023/06/25 03:26:50;;;;;;;7.30;6.00;;;15.10;99.90;;;-144.05;87.02;56855.22;5013288;28;20030;-82
2023/06/25 03:29:16;;;;;;;9.98;6.22;;;15.10;99.90;;;-144.05;87.08;56853.09;5013240;28;20172;-83
2023/06/25 03:31:42;;;;;;;9.27;7.00;;;15.10;99.90;;;-144.05;87.34;56831.84;5012843;28;20030;-82
2023/06/25 03:34:07;;;;;;;9.07;6.55;;;15.10;99.90;;;-144.05;87.41;56829.72;5012538;28;20052;-82
2023/06/25 03:36:33;;;;;;;8.43;6.60;;;15.10;99.90;;;-144.05;87.35;56827.59;5012233;28;20117;-81
2023/06/25 03:38:59;;;;;;;8.77;6.75;;;15.10;99.90;;;-144.05;87.50;56823.34;5012211;28;20058;-80
2023/06/25 03:41:26;;;;;;;8.98;6.53;;;15.10;99.90;;;-144.05;87.47;56840.34;5012106;28;20100;-80
2023/06/25 03:43:52;;;;;;;8.95;6.78;;;15.10;99.90;;;-144.05;87.56;56802.09;5010845;28;20022;-80
2023/06/25 03:46:18;;;;;;;10.82;6.88;;;15.10;99.90;;;-144.05;87.71;56838.22;5011975;28;20060;-82
2023/06/25 03:48:44;;;;;;;9.13;6.88;;;15.20;99.90;;;-144.05;87.67;56831.84;5011832;28;20544;-81
2023/06/25 03:51:11;;;;;;;8.50;6.05;;;15.20;99.90;;;-144.05;87.68;56842.47;5040616;28;20029;-80
2023/06/25 03:53:41;;;;;;;7.88;5.70;;;15.20;99.90;;;-144.05;87.83;56844.59;5031065;28;20029;-81
2023/06/25 03:56:07;;;;;;;10.70;7.10;;;15.20;99.90;;;-144.05;87.82;56848.84;5030007;28;20033;-80
2023/06/25 03:58:36;;;;;;;7.97;5.85;;;15.10;99.90;;;-144.05;87.82;56831.84;5031499;28;20029;-80
2023/06/25 04:01:03;;;;;;;7.88;6.10;;;15.20;99.90;;;-144.05;88.18;56842.47;5030394;28;20087;-80
2023/06/25 04:03:29;;;;;;;9.02;6.07;;;15.10;99.90;;;-144.05;87.98;56855.22;5031381;28;20037;-80
2023/06/25 04:05:55;;;;;;;9.00;6.28;;;15.10;99.90;;;-144.05;88.03;56838.22;5031272;28;20029;-80
2023/06/25 04:08:20;;;;;;;9.27;6.40;;;15.20;99.90;;;-144.05;88.13;56842.47;5031382;28;20573;-81
2023/06/25 04:10:46;;;;;;;7.50;5.78;;;15.20;99.90;;;-144.05;87.98;56833.97;5031334;28;20116;-80
2023/06/25 04:13:12;;;;;;;8.15;6.32;;;15.20;99.90;;;-144.05;87.94;56827.59;5030253;28;20112;-79
2023/06/25 04:15:38;;;;;;;7.63;6.07;;;15.30;99.90;;;-144.05;87.95;56829.72;5029982;28;20030;-80
2023/06/25 04:18:04;;;;;;;9.38;6.82;;;15.30;99.90;;;-144.05;87.86;56840.34;5031062;28;20366;-80
2023/06/25 04:20:30;;;;;;;7.40;6.60;;;15.30;99.90;;;-144.05;87.96;56865.81;5031427;28;20017;-79
2023/06/25 04:22:56;;;;;;;8.77;6.75;;;15.40;99.90;;;-144.05;87.87;56861.56;5031158;28;20033;-81
2023/06/25 04:25:22;;;;;;;10.13;6.57;;;15.50;99.90;;;-144.05;87.73;56850.97;5031090;28;20394;-80
2023/06/25 04:27:49;;;;;;;7.90;6.13;;;15.50;99.90;;;-144.05;87.75;56823.34;5031134;28;20069;-81
2023/06/25 04:30:15;;;;;;;9.13;6.78;;;15.60;99.90;;;-144.05;87.97;56829.72;5030958;28;20037;-79
2023/06/25 04:32:41;;;;;;;8.27;6.85;;;15.70;99.90;;;-144.05;87.71;56840.34;5030924;28;20064;-80
2023/06/25 04:35:07;;;;;;;10.20;7.03;;;15.70;99.90;;;-144.05;87.50;56861.56;5030961;28;20087;-80
2023/06/25 04:37:33;;;;;;;8.98;7.22;;;15.90;99.90;;;-144.05;87.62;56840.34;5033778;28;20582;-84
2023/06/25 04:40:03;;;;;;;8.93;6.50;;;16.00;99.90;;;-144.05;87.33;56831.84;5033622;28;20061;-83
2023/06/25 04:42:29;;;;;;;10.18;6.82;;;16.20;99.90;;;-144.05;87.28;56848.84;5032993;28;20022;-81
2023/06/25 04:44:55;;;;;;;9.75;6.55;;;16.40;99.90;;;-144.05;86.67;56840.34;5033001;28;20478;-80
2023/06/25 04:47:20;;;;;;;10.10;6.95;;;16.60;99.90;;;-144.05;85.92;56836.09;5032163;28;20168;-82
2023/06/25 04:49:47;;;;;;;8.52;6.40;;;16.80;99.90;;;-144.05;85.30;56850.97;5029714;28;20041;-82
2023/06/25 04:52:18;;;;;;;8.48;6.57;;;17.10;99.90;;;-144.05;84.47;56863.69;5012116;28;20495;-82
2023/06/25 04:54:45;;;;;;;10.10;6.60;;;17.40;99.90;;;-144.05;83.36;56844.59;5011999;28;20060;-82
2023/06/25 04:57:12;;;;;;;10.80;7.15;;;17.60;99.90;;;-144.05;81.50;56848.84;5011504;28;20037;-81
2023/06/25 04:59:38;;;;;;;8.98;6.35;;;17.80;99.90;;;-144.05;80.19;56865.81;5011233;28;20102;-82
2023/06/25 05:02:05;;;;;;;7.97;6.40;;;18.00;99.90;;;-144.05;79.35;56855.22;5011205;28;20124;-82
2023/06/25 05:04:31;;;;;;;9.35;6.20;;;18.20;99.90;;;-144.05;78.43;56870.06;5011644;28;20022;-81
2023/06/25 05:06:57;;;;;;;9.07;6.47;;;18.50;99.90;;;-144.05;77.46;56853.09;5013609;28;20030;-80
2023/06/25 05:09:24;;;;;;;8.13;5.85;;;18.70;99.90;;;-144.05;76.66;56865.81;5014671;28;20508;-80
2023/06/25 05:11:49;;;;;;;8.43;6.43;;;18.90;99.90;;;-144.05;76.14;56855.22;5013403;28;20030;-81
2023/06/25 05:14:15;;;;;;;8.65;5.85;;;19.10;99.90;;;-144.05;74.94;56880.69;5013294;28;20562;-83
2023/06/25 05:16:41;;;;;;;8.98;5.57;;;19.40;99.90;;;-144.05;74.33;56855.22;5029675;28;20344;-81
2023/06/25 05:19:07;;;;;;;8.90;6.03;;;19.60;99.90;;;-144.05;72.47;56882.81;5014568;28;20033;-80
2023/06/25 05:21:32;;;;;;;11.13;6.85;;;19.80;99.90;;;-144.05;71.38;56887.06;5014921;28;20026;-80
2023/06/25 05:24:06;;;;;;;7.20;5.88;;;20.00;99.90;;;-144.05;67.77;56878.56;5014788;28;20053;-82
2023/06/25 05:26:32;;;;;;;9.15;5.97;;;20.30;99.90;;;-144.05;65.78;56887.06;5015835;28;20030;-80
2023/06/25 05:28:57;;;;;;;9.40;6.32;;;20.60;99.90;;;-144.05;63.80;56893.44;5030219;28;20081;-79
2023/06/25 05:31:24;;;;;;;7.72;6.00;;;20.90;99.90;;;-144.05;62.15;56882.81;5026830;28;20508;-82
2023/06/25 05:33:49;;;;;;;7.05;5.15;;;21.20;99.90;;;-144.05;60.38;56912.56;5014532;28;20509;-82
2023/06/25 05:36:16;;;;;;;7.22;5.15;;;21.40;99.90;;;-144.05;59.12;56914.69;5014866;28;20065;-83
2023/06/25 05:38:42;;;;;;;8.15;5.63;;;21.60;99.90;;;-144.05;57.70;56921.06;5014590;28;20458;-81
2023/06/25 05:41:09;;;;;;;6.65;5.95;;;21.80;99.90;;;-144.05;56.79;56938.03;5014417;28;20033;-83
2023/06/25 05:43:34;;;;;;;8.57;5.70;;;22.00;99.90;;;-144.05;56.04;56927.41;5013253;28;20057;-83
2023/06/25 05:46:00;;;;;;;6.20;5.35;;;22.20;99.90;;;-144.05;55.59;56931.66;5014398;28;20458;-82
2023/06/25 05:48:26;;;;;;;7.65;5.50;;;22.40;99.90;;;-144.05;55.34;56914.69;5014358;28;20033;-81
2023/06/25 05:50:52;;;;;;;5.43;4.80;;;22.60;99.90;;;-144.05;54.19;56948.66;5025986;28;20025;-82
2023/06/25 05:53:23;;;;;;;7.43;5.03;;;22.80;99.90;;;-144.05;52.97;56942.28;5034392;28;20052;-84
2023/06/25 05:55:49;;;;;;;6.40;5.47;;;23.10;99.90;;;-144.05;53.33;56963.53;5034210;28;20496;-80
2023/06/25 05:58:15;;;;;;;7.05;5.35;;;23.30;99.90;;;-144.05;52.00;56935.91;5033962;28;20025;-80
2023/06/25 06:00:41;;;;;;;6.15;5.07;;;23.50;99.90;;;-144.05;51.11;56969.91;5034140;28;20080;-82
2023/06/25 06:03:07;;;;;;;5.85;4.65;;;23.80;99.90;;;-144.05;50.79;56965.66;5033776;28;20510;-80
2023/06/25 06:05:33;;;;;;;6.38;5.10;;;23.90;99.90;;;-144.05;50.27;56980.53;5048795;28;20259;-81
2023/06/25 06:07:59;;;;;;;6.65;5.07;;;24.10;99.90;;;-144.05;50.14;56965.66;5049059;28;20443;-80
2023/06/25 06:10:25;;;;;;;6.82;5.70;;;24.20;99.90;;;-144.05;49.23;56972.03;5048967;28;20400;-81
2023/06/25 06:12:50;;;;;;;5.95;5.32;;;24.50;99.90;;;-144.05;48.32;56993.25;5049039;28;20026;-82
2023/06/25 06:15:17;;;;;;;6.22;5.10;;;24.60;99.90;;;-144.05;47.89;56967.78;5033438;28;20083;-81
2023/06/25 06:17:42;;;;;;;6.95;5.35;;;24.90;99.90;;;-144.05;47.07;56995.38;5033603;28;20108;-80
2023/06/25 06:20:09;;;;;;;6.03;4.80;;;25.10;99.90;;;-144.05;47.27;57014.50;5032125;28;20060;-82
2023/06/25 06:22:35;;;;;;;6.97;4.95;;;25.20;99.90;;;-144.05;46.14;57027.25;5032086;28;20065;-81
2023/06/25 06:25:01;;;;;;;6.97;5.40;;;25.40;99.90;;;-144.05;46.53;57008.13;5032058;28;20065;-82
2023/06/25 06:27:26;;;;;;;5.68;4.85;;;25.40;99.90;;;-144.05;45.87;57003.88;5033907;28;20079;-82
2023/06/25 06:29:52;;;;;;;5.25;4.75;;;25.60;99.90;;;-144.05;46.26;57031.50;5049556;28;20029;-83
2023/06/25 06:32:18;;;;;;;7.07;4.43;;;25.80;99.90;;;-144.05;44.68;57031.50;5034686;28;20057;-82
2023/06/25 06:34:44;;;;;;;7.45;4.80;;;26.00;99.90;;;-144.05;43.96;57037.88;5032858;28;20065;-82
2023/06/25 06:37:11;;;;;;;5.47;4.60;;;26.10;99.90;;;-144.05;43.87;57027.25;5034452;28;20034;-83
2023/06/25 06:39:37;;;;;;;6.47;4.78;;;26.10;99.90;;;-144.05;43.24;57037.88;5033627;28;20039;-82
2023/06/25 06:42:03;;;;;;;5.70;4.82;;;26.10;99.90;;;-144.05;43.33;57044.25;5034673;28;20033;-81
2023/06/25 06:44:30;;;;;;;6.90;5.25;;;26.20;99.90;;;-144.05;42.35;57046.38;5035375;28;20025;-82
2023/06/25 06:46:56;;;;;;;5.05;4.55;;;26.40;99.90;;;-144.05;42.03;57063.34;5047164;28;20072;-84
2023/06/25 06:49:22;;;;;;;6.15;4.78;;;26.60;99.90;;;-144.05;41.57;57063.34;5052490;28;20033;-84
2023/06/25 06:51:48;;;;;;;6.22;5.18;;;26.70;99.90;;;-144.05;41.22;57069.72;5069140;28;20145;-83
2023/06/25 06:54:14;;;;;;;5.72;4.80;;;26.80;99.90;;;-144.05;40.84;57086.72;5053953;28;20098;-79
2023/06/25 06:56:40;;;;;;;5.43;4.45;;;27.00;99.90;;;-144.05;40.55;57082.47;5034720;28;20030;-84
2023/06/25 06:59:05;;;;;;;8.73;5.00;;;27.20;99.90;;;-144.05;40.24;57086.72;5033111;28;20022;-82
2023/06/25 07:01:33;;;;;;;6.20;4.50;;;27.20;99.90;;;-144.05;40.43;57080.34;5032674;28;20026;-80
2023/06/25 07:03:59;;;;;;;6.20;4.60;;;27.40;99.90;;;-144.05;40.20;57099.47;5031515;28;20099;-79
2023/06/25 07:06:25;;;;;;;7.43;5.00;;;27.40;99.90;;;-144.05;39.98;57103.72;5033279;28;20096;-86
2023/06/25 07:08:51;;;;;;;6.03;4.63;;;27.50;99.90;;;-144.05;39.41;57099.47;5050745;28;20025;-86
2023/06/25 07:11:18;;;;;;;6.35;4.28;;;27.80;99.90;;;-144.05;39.33;57097.34;5049980;28;20084;-88
2023/06/25 07:13:47;;;;;;;7.40;4.78;;;27.80;99.90;;;-144.05;39.32;57095.22;5034632;28;20037;-85
2023/06/25 07:16:13;;;;;;;5.20;4.50;;;27.80;99.90;;;-144.05;38.94;57101.59;5032358;28;20029;-83
2023/06/25 07:18:39;;;;;;;6.40;4.72;;;27.90;99.90;;;-144.05;38.65;57116.47;5033694;28;20032;-87
2023/06/25 07:21:06;;;;;;;6.97;4.80;;;27.90;99.90;;;-144.05;38.24;57101.59;5033995;28;20032;-86
2023/06/25 07:23:36;;;;;;;6.25;4.35;;;28.10;99.90;;;-144.05;38.30;57105.84;5031281;28;20042;-85
2023/06/25 07:26:03;;;;;;;4.75;4.25;;;28.10;99.90;;;-144.05;37.30;57116.47;5047781;28;20087;-84
2023/06/25 07:28:29;;;;;;;5.50;4.47;;;28.20;99.90;;;-144.05;37.38;57107.97;5032115;28;20029;-88
2023/06/25 07:30:55;;;;;;;5.47;4.35;;;28.20;99.90;;;-144.05;37.10;57112.22;5031272;28;20030;-82
2023/06/25 07:33:21;;;;;;;6.65;4.28;;;28.40;99.90;;;-144.05;36.90;57139.81;5033265;28;20100;-85
2023/06/25 07:35:47;;;;;;;5.30;4.72;;;28.50;99.20;;;-144.05;36.28;57141.94;5036130;28;20036;-86
2023/06/25 07:38:12;;;;;;;6.60;4.68;;;28.70;98.50;;;-144.05;36.40;57167.44;5032333;28;20064;-88
2023/06/25 07:40:38;;;;;;;5.63;4.63;;;28.80;98.70;;;-144.05;35.73;57127.09;5032507;28;20453;-89
2023/06/25 07:43:04;;;;;;;4.90;4.40;;;29.00;97.70;;;-144.05;35.14;57146.19;5031205;28;20018;-86
2023/06/25 07:45:30;;;;;;;5.38;4.40;;;29.10;96.00;;;-144.05;34.93;57188.69;5032725;28;20064;-87
2023/06/25 07:47:56;;;;;;;4.88;4.07;;;29.20;96.70;;;-144.05;35.38;57146.19;5031773;28;20064;-88
2023/06/25 07:50:22;;;;;;;8.40;4.57;;;29.30;96.30;;;-144.05;34.68;57197.19;5025901;28;20046;-87
2023/06/25 07:52:48;;;;;;;5.60;4.28;;;29.30;94.70;;;-144.05;34.88;57167.44;5027820;28;20489;-88
2023/06/25 07:55:14;;;;;;;5.10;4.45;;;29.00;94.80;;;-144.05;35.21;57141.94;5027808;28;20036;-86
2023/06/25 07:57:41;;;;;;;6.45;4.50;;;29.10;95.10;;;-144.05;33.92;57163.19;5010990;28;20065;-81
2023/06/25 08:00:08;;;;;;;5.03;4.22;;;29.40;93.50;;;-144.05;33.99;57165.31;5012153;28;20473;-80
2023/06/25 08:02:33;;;;;;;7.78;4.85;;;29.40;92.80;;;-144.05;34.16;57161.06;5027096;28;20040;-83
2023/06/25 08:04:59;;;;;;;4.82;4.25;;;29.50;93.30;;;-144.05;34.01;57205.66;5012056;28;20037;-80
2023/06/25 08:07:25;;;;;;;4.53;3.92;;;29.50;92.90;;;-144.05;34.33;57207.78;5010535;28;20413;-80
2023/06/25 08:09:51;;;;;;;5.20;4.15;;;29.80;93.00;;;-144.05;33.75;57197.19;5011804;28;20076;-80
2023/06/25 08:12:17;;;;;;;4.43;4.00;;;29.80;91.70;;;-144.05;32.96;57175.94;5012050;28;20037;-83
2023/06/25 08:14:43;;;;;;;5.07;3.92;;;29.90;90.50;;;-144.05;31.97;57199.31;5010643;28;20093;-81
2023/06/25 08:17:09;;;;;;;4.80;4.18;;;30.10;88.60;;;-144.05;32.68;57203.56;5011656;28;20038;-81
2023/06/25 08:19:35;;;;;;;6.35;4.15;;;30.10;90.30;;;-144.05;32.97;57209.91;5011873;28;20025;-83
2023/06/25 08:22:01;;;;;;;4.75;3.88;;;30.20;90.30;;;-144.05;32.29;57246.03;5012427;28;20084;-84
2023/06/25 08:24:26;;;;;;;6.95;3.97;;;30.50;89.20;;;-144.05;31.78;57224.78;5012810;28;20045;-79
2023/06/25 08:26:52;;;;;;;5.38;4.85;;;30.50;86.30;;;-144.05;31.60;57195.06;5012752;28;20038;-81
2023/06/25 08:29:18;;;;;;;4.60;4.20;;;30.30;83.50;;;-144.05;32.11;57186.56;5020102;28;20129;-80
2023/06/25 08:31:44;;;;;;;5.32;3.90;;;30.20;84.70;;;-144.05;32.49;57203.56;5012409;28;20034;-82
2023/06/25 08:34:10;;;;;;;4.13;3.72;;;30.30;86.20;;;-144.05;31.63;57231.16;5011821;28;20026;-82
2023/06/25 08:36:36;;;;;;;4.65;3.92;;;30.50;84.90;;;-144.05;31.24;57252.41;5010746;28;20125;-79
2023/06/25 08:39:02;;;;;;;5.47;4.40;;;30.60;81.70;;;-144.05;30.83;57237.53;5013205;28;20022;-83
2023/06/25 08:41:29;;;;;;;5.05;4.30;;;30.70;80.00;;;-144.05;31.38;57195.06;5015534;28;20460;-80
2023/06/25 08:43:55;;;;;;;5.00;4.07;;;30.20;79.60;;;-144.05;31.22;57201.44;5016001;28;20026;-81
2023/06/25 08:46:24;;;;;;;6.75;3.88;;;30.30;79.60;;;-144.05;30.97;57188.69;5015943;28;20493;-81
2023/06/25 08:48:54;;;;;;;5.20;4.10;;;30.20;77.80;;;-144.05;30.96;57184.44;5015701;28;20030;-82
2023/06/25 08:51:24;;;;;;;4.63;4.13;;;30.10;78.40;;;-144.05;31.20;57199.31;5030837;28;20122;-81
2023/06/25 08:53:51;;;;;;;5.95;4.28;;;30.20;78.80;;;-144.05;30.44;57220.53;5033853;28;20030;-82
2023/06/25 08:56:18;;;;;;;5.80;4.22;;;30.40;76.30;;;-144.05;31.01;57201.44;5042131;28;20480;-82
2023/06/25 08:58:45;;;;;;;5.53;4.07;;;30.40;77.30;;;-144.05;30.89;57235.41;5055851;28;20547;-81
2023/06/25 09:01:12;;;;;;;5.72;3.90;;;30.70;78.40;;;-144.05;30.82;57226.91;5046629;28;20418;-80
2023/06/25 09:03:42;;;;;;;4.72;4.25;;;30.60;76.60;;;-144.05;30.66;57218.41;5054821;28;20197;-80
2023/06/25 09:06:17;;;;;;;4.57;4.10;;;30.70;76.40;;;-144.05;29.54;57258.78;5038945;28;20460;-82
2023/06/25 09:08:44;;;;;;;4.88;4.03;;;31.10;74.20;;;-144.05;30.16;57269.41;5053502;28;20033;-80
2023/06/25 09:11:12;;;;;;;5.35;4.43;;;31.00;75.00;;;-144.05;30.04;57248.16;5037154;28;20124;-84
2023/06/25 09:13:39;;;;;;;6.28;4.20;;;31.20;75.60;;;-144.05;29.87;57284.28;5038975;28;20047;-81
2023/06/25 09:16:09;;;;;;;5.03;4.03;;;31.40;74.20;;;-144.05;29.77;57243.91;5036758;28;20499;-84
2023/06/25 09:18:36;;;;;;;5.07;4.20;;;31.30;72.80;;;-144.05;30.06;57252.41;5038865;28;20030;-81
2023/06/25 09:21:08;;;;;;;4.47;4.07;;;31.00;72.80;;;-144.05;29.67;57239.66;5038056;28;20478;-81
2023/06/25 09:23:38;;;;;;;4.40;4.00;;;30.90;72.00;;;-144.05;29.65;57284.28;5054130;28;20132;-83
2023/06/25 09:26:09;;;;;;;4.80;4.07;;;31.20;72.50;;;-144.05;29.68;57290.63;5054265;28;20029;-82
2023/06/25 09:28:49;;;;;;;5.70;4.40;;;31.40;72.90;;;-144.05;29.24;57235.41;5038877;28;20027;-78
2023/06/25 09:31:17;;;;;;;5.22;4.18;;;31.20;69.90;;;-144.05;29.58;57246.03;5054505;28;20048;-82
2023/06/25 09:33:53;;;;;;;8.15;4.68;;;31.30;72.00;;;-144.05;29.38;57288.50;5038899;28;20144;-80
2023/06/25 09:36:19;;;;;;;4.22;3.65;;;31.40;71.50;;;-144.05;29.72;57271.53;5054126;28;20458;-80
2023/06/25 09:38:47;;;;;;;5.55;4.40;;;31.30;71.80;;;-144.05;29.43;57307.63;5039411;28;20049;-83
2023/06/25 09:41:17;;;;;;;4.32;3.92;;;31.40;71.70;;;-144.05;29.55;57305.50;5036859;28;20021;-83
2023/06/25 09:43:45;;;;;;;5.03;3.95;;;31.60;72.50;;;-144.05;29.26;57350.13;5038088;28;20041;-84
2023/06/25 09:46:13;;;;;;;4.60;4.18;;;31.90;71.90;;;-144.05;28.75;57294.88;5038271;28;20520;-80
2023/06/25 09:48:41;;;;;;;4.80;4.30;;;31.90;69.20;;;-144.05;29.42;57282.16;5037325;28;20025;-82
2023/06/25 09:51:12;;;;;;;5.68;4.38;;;31.70;70.30;;;-144.05;29.25;57282.16;5024013;28;20535;-82
2023/06/25 09:53:43;;;;;;;6.25;4.63;;;31.90;71.50;;;-144.05;28.45;57343.75;5016434;28;20504;-81
2023/06/25 09:56:12;;;;;;;7.28;4.20;;;32.10;67.30;;;-144.05;28.08;57365.00;5016380;28;20026;-82
2023/06/25 09:58:38;;;;;;;4.80;4.30;;;32.20;67.10;;;-144.05;28.18;57314.00;5018016;28;20072;-82
2023/06/25 10:01:04;;;;;;;4.35;3.90;;;32.10;67.30;;;-144.05;29.06;57320.38;5016578;28;20026;-89
2023/06/25 10:03:34;;;;;;;4.70;4.28;;;32.20;68.90;;;-144.05;28.59;57286.38;5021069;28;20026;-86
2023/06/25 10:08:28;;;;;;;5.55;3.72;;;32.20;66.90;;;-144.05;28.87;57314.00;5016127;28;20045;-83